createdAt,value
2023-04-29T13:03:16.029Z,100712.75
2023-04-29T13:05:46.403Z,100728.81
2023-04-29T13:08:17.560Z,100728.53
2023-04-29T13:10:48.444Z,100738.81
2023-04-29T13:13:19.454Z,100735.69
2023-04-29T13:15:49.979Z,100739.09
2023-04-29T13:18:20.476Z,100743.16
2023-04-29T13:20:52.996Z,100743.91
2023-04-29T13:23:23.954Z,100752.59
2023-04-29T13:25:54.584Z,100758.91
2023-04-29T13:28:25.266Z,100769.38
2023-04-29T13:30:55.655Z,100776.03
2023-04-29T13:33:26.279Z,100775.56
2023-04-29T13:35:56.705Z,100796.09
2023-04-29T13:38:26.957Z,100804.53
2023-04-29T13:40:58.425Z,100809.16
2023-04-29T13:43:37.892Z,100820.06
2023-04-29T13:46:09.438Z,100818.91
2023-04-29T13:51:57.905Z,100835.09
2023-04-29T13:57:07.776Z,100838.34
2023-04-29T13:59:42.584Z,100851.22
2023-04-29T14:02:24.406Z,100860.69
2023-04-29T14:04:56.903Z,100859.16
2023-04-29T14:07:27.478Z,100864.34
2023-04-29T14:09:57.777Z,100868.59
2023-04-29T14:12:28.078Z,100862.25
2023-04-29T14:15:00.489Z,100857.72
2023-04-29T14:17:31.134Z,100857.41
2023-04-29T14:20:01.446Z,100855.16
2023-04-29T14:22:31.954Z,100856.03
2023-04-29T14:25:02.347Z,100849.69
2023-04-29T14:27:32.893Z,100841.38
2023-04-29T14:30:03.444Z,100838.75
2023-04-29T14:32:33.897Z,100824.41
2023-04-29T14:35:04.240Z,100827.66
2023-04-29T14:37:34.653Z,100831.56
2023-04-29T14:40:05.043Z,100824.16
2023-04-29T14:42:35.474Z,100819.94
2023-04-29T14:45:06.538Z,100817.31
2023-04-29T14:47:37.245Z,100816.03
2023-04-29T14:50:08.508Z,100806.56
2023-04-29T14:52:39.389Z,100803.78
2023-04-29T14:55:11.353Z,100799.63
2023-04-29T14:57:41.775Z,100794.25
2023-04-29T15:00:13.811Z,100783.56
2023-04-29T15:02:44.491Z,100783.38
2023-04-29T15:05:15.192Z,100781.63
2023-04-29T15:07:45.664Z,100792.53
2023-04-29T15:10:16.145Z,100794.94
2023-04-29T15:12:46.595Z,100814.16
2023-04-29T15:15:17.010Z,100812.88
2023-04-29T15:17:47.544Z,100819.50
2023-04-29T15:20:19.703Z,100825.84
2023-04-29T15:22:50.170Z,100840.16
2023-04-29T15:25:21.180Z,100843.00
2023-04-29T15:27:51.968Z,100852.13
2023-04-29T15:30:22.599Z,100856.72
2023-04-29T15:32:53.286Z,100858.00
2023-04-29T15:35:25.007Z,100856.72
2023-04-29T15:37:55.384Z,100858.00
2023-04-29T15:40:25.927Z,100844.16
2023-04-29T15:42:56.230Z,100846.31
2023-04-29T15:45:26.842Z,100843.19
2023-04-29T15:47:57.250Z,100843.53
2023-04-29T15:50:29.430Z,100836.72
2023-04-29T15:53:01.375Z,100835.09
2023-04-29T15:55:31.799Z,100831.03
2023-04-29T15:58:02.334Z,100825.47
2023-04-29T16:00:32.941Z,100828.25
2023-04-29T16:03:03.808Z,100834.13
2023-04-29T16:05:34.916Z,100841.97
2023-04-29T16:08:05.293Z,100838.06
2023-04-29T16:10:35.835Z,100844.25
2023-04-29T16:13:06.596Z,100843.94
2023-04-29T16:15:37.796Z,100840.34
2023-04-29T16:18:08.378Z,100848.66
2023-04-29T16:20:38.963Z,100848.19
2023-04-29T16:23:09.413Z,100849.00
2023-04-29T16:25:39.993Z,100853.59
2023-04-29T16:28:10.374Z,100851.28
2023-04-29T16:30:41.191Z,100852.44
2023-04-29T16:33:11.698Z,100854.06
2023-04-29T16:35:42.206Z,100852.09
2023-04-29T16:38:12.949Z,100841.38
2023-04-29T16:40:43.797Z,100844.44
2023-04-29T16:43:16.875Z,100838.59
2023-04-29T16:45:47.460Z,100835.00
2023-04-29T16:48:17.970Z,100825.88
2023-04-29T16:50:49.201Z,100823.91
2023-04-29T16:53:20.780Z,100806.00
2023-04-29T16:55:52.939Z,100796.56
2023-04-29T16:58:24.264Z,100788.84
2023-04-29T17:00:56.425Z,100781.91
2023-04-29T17:03:28.007Z,100779.59
2023-04-29T17:05:58.790Z,100782.72
2023-04-29T17:08:29.595Z,100785.00
2023-04-29T17:11:00.154Z,100780.59
2023-04-29T17:13:30.648Z,100781.44
2023-04-29T17:16:01.350Z,100782.88
2023-04-29T17:18:32.536Z,100779.63
2023-04-29T17:21:03.149Z,100784.00
2023-04-29T17:23:34.004Z,100771.31
2023-04-29T17:26:04.697Z,100776.53
2023-04-29T17:28:35.229Z,100765.44
2023-04-29T17:31:06.072Z,100756.03
2023-04-29T17:33:37.651Z,100748.50
2023-04-29T17:36:08.865Z,100749.63
2023-04-29T17:38:39.099Z,100748.50
2023-04-29T17:41:09.603Z,100737.75
2023-04-29T17:43:40.126Z,100735.78
2023-04-29T17:46:10.631Z,100731.38
2023-04-29T17:48:41.074Z,100739.41
2023-04-29T17:51:11.565Z,100735.28
2023-04-29T17:53:41.860Z,100742.47
2023-04-29T17:56:12.231Z,100728.16
2023-04-29T17:58:42.556Z,100732.53
2023-04-29T18:01:12.950Z,100728.16
2023-04-29T18:03:44.062Z,100717.88
2023-04-29T18:06:15.062Z,100717.09
2023-04-29T18:08:45.479Z,100715.47
2023-04-29T18:11:15.988Z,100703.56
2023-04-29T18:13:46.913Z,100700.91
2023-04-29T18:16:17.316Z,100693.75
2023-04-29T18:18:47.813Z,100692.59
2023-04-29T18:21:26.376Z,100685.44
2023-04-29T18:23:58.011Z,100689.81
2023-04-29T18:26:28.531Z,100698.50
2023-04-29T18:28:59.188Z,100689.38
2023-04-29T18:31:29.572Z,100695.72
2023-04-29T18:34:00.132Z,100697.22
2023-04-29T18:36:31.736Z,100693.31
2023-04-29T18:39:02.271Z,100693.75
2023-04-29T18:41:34.231Z,100694.09
2023-04-29T18:44:04.860Z,100692.16
2023-04-29T18:46:35.371Z,100693.31
2023-04-29T18:49:06.064Z,100693.31
2023-04-29T18:51:36.416Z,100686.63
2023-04-29T18:54:06.961Z,100688.44
2023-04-29T18:56:38.920Z,100678.63
2023-04-29T18:59:12.037Z,100675.72
2023-04-29T19:01:42.431Z,100667.75
2023-04-29T19:04:13.123Z,100664.97
2023-04-29T19:06:44.140Z,100659.13
2023-04-29T19:09:14.309Z,100665.44
2023-04-29T19:11:44.674Z,100663.50
2023-04-29T19:14:15.023Z,100657.13
2023-04-29T19:16:45.494Z,100664.66
2023-04-29T19:19:15.912Z,100668.56
2023-04-29T19:21:47.097Z,100674.09
2023-04-29T19:24:18.283Z,100667.41
2023-04-29T19:26:48.881Z,100671.00
2023-04-29T19:29:19.355Z,100669.03
2023-04-29T19:31:49.963Z,100659.91
2023-04-29T19:34:20.447Z,100651.94
2023-04-29T19:36:51.079Z,100648.03
2023-04-29T19:39:21.551Z,100640.03
2023-04-29T19:41:53.129Z,100642.03
2023-04-29T19:44:23.578Z,100648.34
2023-04-29T19:46:55.833Z,100647.09
2023-04-29T19:49:26.241Z,100644.00
2023-04-29T19:51:56.859Z,100644.78
2023-04-29T19:54:27.315Z,100659.00
2023-04-29T19:56:57.767Z,100651.00
2023-04-29T19:59:28.739Z,100650.31
2023-04-29T20:01:59.420Z,100645.94
2023-04-29T20:04:29.500Z,100649.53
2023-04-29T20:06:59.285Z,100656.53
2023-04-29T20:09:29.294Z,100662.56
2023-04-29T20:11:59.078Z,100665.78
2023-04-29T20:14:29.307Z,100660.13
2023-04-29T20:17:00.511Z,100654.91
2023-04-29T20:19:30.932Z,100637.16
2023-04-29T20:22:01.038Z,100650.53
2023-04-29T20:24:30.987Z,100639.44
2023-04-29T20:27:00.776Z,100643.38
2023-04-29T20:29:32.338Z,100640.59
2023-04-29T20:32:02.384Z,100647.75
2023-04-29T20:34:32.314Z,100650.03
2023-04-29T20:37:02.164Z,100646.13
2023-04-29T20:39:32.120Z,100637.81
2023-04-29T20:42:02.458Z,100637.38
2023-04-29T20:44:32.468Z,100631.84
2023-04-29T20:47:02.647Z,100640.94
2023-04-29T20:49:32.785Z,100642.91
2023-04-29T20:52:03.774Z,100642.91
2023-04-29T20:54:33.546Z,100631.84
2023-04-29T20:57:04.316Z,100626.44
2023-04-29T20:59:35.237Z,100622.03
2023-04-29T21:02:05.274Z,100633.09
2023-04-29T21:04:35.053Z,100630.66
2023-04-29T21:07:05.526Z,100624.69
2023-04-29T21:09:35.662Z,100627.44
2023-04-29T21:12:07.729Z,100630.22
2023-04-29T21:14:38.995Z,100633.31
2023-04-29T21:17:09.688Z,100637.22
2023-04-29T21:19:40.173Z,100637.22
2023-04-29T21:22:10.499Z,100630.88
2023-04-29T21:24:40.448Z,100630.88
2023-04-29T21:27:10.424Z,100628.13
2023-04-29T21:29:43.192Z,100642.28
2023-04-29T21:32:13.214Z,100640.81
2023-04-29T21:34:43.053Z,100652.38
2023-04-29T21:37:13.240Z,100652.69
2023-04-29T21:39:43.160Z,100656.97
2023-04-29T21:42:13.588Z,100660.03
2023-04-29T21:44:43.574Z,100672.63
2023-04-29T21:47:13.312Z,100685.19
2023-04-29T21:49:43.234Z,100691.03
2023-04-29T21:52:13.009Z,100690.91
2023-04-29T21:54:42.936Z,100687.34
2023-04-29T21:57:12.720Z,100688.13
2023-04-29T21:59:42.555Z,100690.13
2023-04-29T22:02:24.870Z,100685.38
2023-04-29T22:04:55.148Z,100691.91
2023-04-29T22:07:25.512Z,100685.44
2023-04-29T22:09:55.890Z,100690.97
2023-04-29T22:12:26.092Z,100689.69
2023-04-29T22:14:56.139Z,100699.47
2023-04-29T22:17:26.063Z,100707.31
2023-04-29T22:19:56.588Z,100712.34
2023-04-29T22:22:26.607Z,100718.53
2023-04-29T22:24:56.458Z,100707.97
2023-04-29T22:27:26.189Z,100713.50
2023-04-29T22:29:56.369Z,100726.47
2023-04-29T22:32:26.589Z,100719.66
2023-04-29T22:34:58.353Z,100737.56
2023-04-29T22:37:29.902Z,100734.00
2023-04-29T22:39:59.643Z,100732.38
2023-04-29T22:42:29.547Z,100729.94
2023-04-29T22:44:59.508Z,100741.66
2023-04-29T22:47:29.306Z,100733.38
2023-04-29T22:49:59.201Z,100744.75
2023-04-29T22:52:29.845Z,100748.22
2023-04-29T22:54:59.793Z,100749.84
2023-04-29T22:57:29.591Z,100754.88
2023-04-29T22:59:59.743Z,100762.84
2023-04-29T23:02:31.430Z,100765.13
2023-04-29T23:05:02.113Z,100772.63
2023-04-29T23:07:32.486Z,100775.06
2023-04-29T23:10:02.542Z,100774.91
2023-04-29T23:12:33.004Z,100783.22
2023-04-29T23:15:02.828Z,100786.63
2023-04-29T23:17:33.283Z,100799.69
2023-04-29T23:20:03.339Z,100806.34
2023-04-29T23:22:33.240Z,100805.22
2023-04-29T23:25:03.499Z,100809.59
2023-04-29T23:27:33.341Z,100821.97
2023-04-29T23:30:03.318Z,100816.41
2023-04-29T23:32:33.298Z,100813.53
2023-04-29T23:35:03.219Z,100809.81
2023-04-29T23:37:33.018Z,100818.78
2023-04-29T23:40:02.798Z,100825.78
2023-04-29T23:42:32.632Z,100826.91
2023-04-29T23:45:02.446Z,100821.22
2023-04-29T23:47:32.423Z,100832.44
2023-04-29T23:53:02.580Z,100820.72
2023-04-29T23:55:34.021Z,100823.97
2023-04-29T23:58:04.347Z,100835.34
